createdAt,value
2018-10-18T00:01:15.863Z,12.50
2018-10-18T00:03:44.103Z,12.40
2018-10-18T00:06:12.518Z,12.40
2018-10-18T00:08:41.591Z,12.40
2018-10-18T00:11:09.858Z,12.40
2018-10-18T00:13:38.010Z,12.30
2018-10-18T00:16:06.197Z,12.30
2018-10-18T00:18:34.627Z,12.30
2018-10-18T00:21:04.821Z,12.30
2018-10-18T00:23:33.144Z,12.20
2018-10-18T00:26:02.260Z,12.20
2018-10-18T00:28:30.562Z,12.20
2018-10-18T00:30:58.795Z,12.20
2018-10-18T00:33:27.112Z,12.20
2018-10-18T00:35:55.216Z,12.10
2018-10-18T00:38:23.294Z,12.10
2018-10-18T00:40:51.381Z,12.00
2018-10-18T00:43:19.439Z,12.00
2018-10-18T00:45:47.640Z,11.90
2018-10-18T00:48:15.843Z,12.00
2018-10-18T00:50:43.945Z,11.90
2018-10-18T00:53:12.028Z,11.90
2018-10-18T00:55:40.063Z,11.90
2018-10-18T00:58:08.180Z,11.90
2018-10-18T01:00:36.319Z,11.90
2018-10-18T01:03:04.600Z,11.90
2018-10-18T01:05:32.700Z,12.00
2018-10-18T01:08:00.814Z,12.00
2018-10-18T01:10:29.005Z,12.00
2018-10-18T01:12:57.081Z,12.00
2018-10-18T01:15:25.138Z,12.00
2018-10-18T01:17:53.275Z,12.00
2018-10-18T01:20:21.628Z,12.00
2018-10-18T01:22:49.800Z,12.00
2018-10-18T01:25:17.935Z,12.00
2018-10-18T01:27:46.092Z,12.00
2018-10-18T01:30:14.309Z,12.00
2018-10-18T01:32:42.426Z,12.00
2018-10-18T01:35:10.537Z,12.00
2018-10-18T01:37:38.653Z,12.00
2018-10-18T01:40:06.748Z,12.00
2018-10-18T01:42:34.846Z,12.00
2018-10-18T01:45:02.974Z,12.00
2018-10-18T01:47:31.625Z,12.00
2018-10-18T01:49:59.689Z,12.00
2018-10-18T01:52:27.692Z,11.90
2018-10-18T01:54:55.799Z,11.90
2018-10-18T01:57:23.944Z,12.00
2018-10-18T01:59:52.078Z,11.90
2018-10-18T02:02:20.219Z,11.90
2018-10-18T02:04:48.268Z,11.90
2018-10-18T02:07:16.284Z,11.90
2018-10-18T02:09:44.374Z,11.90
2018-10-18T02:12:12.512Z,11.80
2018-10-18T02:14:40.660Z,11.80
2018-10-18T02:17:08.833Z,11.70
2018-10-18T02:19:36.871Z,11.70
2018-10-18T02:22:05.139Z,11.70
2018-10-18T02:24:33.214Z,11.70
2018-10-18T02:27:01.398Z,11.70
2018-10-18T02:29:29.653Z,11.70
2018-10-18T02:31:57.844Z,11.70
2018-10-18T02:34:25.952Z,11.70
2018-10-18T02:36:54.001Z,11.70
2018-10-18T02:39:22.082Z,11.70
2018-10-18T02:41:50.209Z,11.70
2018-10-18T02:44:18.394Z,11.70
2018-10-18T02:46:46.648Z,11.70
2018-10-18T02:49:14.736Z,11.70
2018-10-18T02:51:42.869Z,11.80
2018-10-18T02:54:10.947Z,11.80
2018-10-18T02:56:39.007Z,11.80
2018-10-18T02:59:07.043Z,11.90
2018-10-18T03:01:35.270Z,11.90
2018-10-18T03:04:03.551Z,11.90
2018-10-18T03:06:31.611Z,11.90
2018-10-18T03:08:59.680Z,12.00
2018-10-18T03:11:27.789Z,12.00
2018-10-18T03:13:55.864Z,12.10
2018-10-18T03:16:24.042Z,12.10
2018-10-18T03:18:52.062Z,12.20
2018-10-18T03:21:20.152Z,12.20
2018-10-18T03:23:48.197Z,12.30
2018-10-18T03:26:16.366Z,12.30
2018-10-18T03:28:44.504Z,12.40
2018-10-18T03:31:12.596Z,12.40
2018-10-18T03:33:41.428Z,12.40
2018-10-18T03:36:09.571Z,12.50
2018-10-18T03:38:37.666Z,12.50
2018-10-18T03:41:05.860Z,12.60
2018-10-18T03:43:33.959Z,12.60
2018-10-18T03:46:02.105Z,12.60
2018-10-18T03:48:30.239Z,12.60
2018-10-18T03:50:58.402Z,12.60
2018-10-18T03:53:26.532Z,12.60
2018-10-18T03:55:54.624Z,12.60
2018-10-18T03:58:22.710Z,12.60
2018-10-18T04:00:50.798Z,12.60
2018-10-18T04:03:19.151Z,12.60
2018-10-18T04:05:47.282Z,12.60
2018-10-18T04:08:15.348Z,12.60
2018-10-18T04:10:43.382Z,12.60
2018-10-18T04:13:11.635Z,12.70
2018-10-18T04:15:39.830Z,12.70
2018-10-18T04:18:07.959Z,12.70
2018-10-18T04:20:36.046Z,12.70
2018-10-18T04:23:04.133Z,12.70
2018-10-18T04:25:32.380Z,12.80
2018-10-18T04:28:00.726Z,12.80
2018-10-18T04:30:28.876Z,12.80
2018-10-18T04:32:56.950Z,12.90
2018-10-18T04:35:25.042Z,12.90
2018-10-18T04:37:53.091Z,12.90
2018-10-18T04:40:21.158Z,12.90
2018-10-18T04:42:49.198Z,12.90
2018-10-18T04:45:17.371Z,13.00
2018-10-18T04:47:45.525Z,12.90
2018-10-18T04:50:13.498Z,12.90
2018-10-18T04:52:42.566Z,13.00
2018-10-18T04:55:10.676Z,12.90
2018-10-18T04:57:39.303Z,12.90
2018-10-18T05:00:08.564Z,12.90
2018-10-18T05:02:36.749Z,12.90
2018-10-18T05:05:15.978Z,12.90
2018-10-18T05:07:44.130Z,12.90
2018-10-18T05:10:12.220Z,12.90
2018-10-18T05:12:40.497Z,12.90
2018-10-18T05:15:08.994Z,12.90
2018-10-18T05:17:37.170Z,12.90
2018-10-18T05:20:05.701Z,12.90
2018-10-18T05:22:33.930Z,12.90
2018-10-18T05:25:02.083Z,12.90
2018-10-18T05:27:30.078Z,12.90
2018-10-18T05:29:58.390Z,12.90
2018-10-18T05:32:32.140Z,12.90
2018-10-18T05:35:00.290Z,12.90
2018-10-18T05:37:28.495Z,12.90
2018-10-18T05:39:56.652Z,12.90
2018-10-18T05:42:24.882Z,12.90
2018-10-18T05:44:53.131Z,12.90
2018-10-18T05:47:21.271Z,12.90
2018-10-18T05:49:49.719Z,12.90
2018-10-18T05:52:18.645Z,12.90
2018-10-18T05:54:47.414Z,12.80
2018-10-18T05:57:16.589Z,12.90
2018-10-18T05:59:44.736Z,12.90
2018-10-18T06:02:12.768Z,12.90
2018-10-18T06:04:40.855Z,12.90
2018-10-18T06:07:09.199Z,12.90
2018-10-18T06:09:37.239Z,12.90
2018-10-18T06:12:05.573Z,12.90
2018-10-18T06:14:33.660Z,13.00
2018-10-18T06:17:02.731Z,13.00
2018-10-18T06:19:30.845Z,13.00
2018-10-18T06:21:58.931Z,13.00
2018-10-18T06:24:27.001Z,13.10
2018-10-18T06:26:55.176Z,13.10
2018-10-18T06:29:23.916Z,13.10
2018-10-18T06:31:52.013Z,13.10
2018-10-18T06:34:20.230Z,13.20
2018-10-18T06:36:48.284Z,13.20
2018-10-18T06:39:16.471Z,13.20
2018-10-18T06:41:44.552Z,13.30
2018-10-18T06:44:12.865Z,13.30
2018-10-18T06:46:40.951Z,13.30
2018-10-18T06:49:09.231Z,13.40
2018-10-18T06:51:37.296Z,13.40
2018-10-18T06:54:05.593Z,13.40
2018-10-18T06:56:33.741Z,13.50
2018-10-18T06:59:02.001Z,13.50
2018-10-18T07:01:30.189Z,13.50
2018-10-18T07:03:58.334Z,13.50
2018-10-18T07:06:26.531Z,13.60
2018-10-18T07:08:54.846Z,13.60
2018-10-18T07:11:22.901Z,13.60
2018-10-18T07:13:51.711Z,13.60
2018-10-18T07:16:20.293Z,13.60
2018-10-18T07:18:48.913Z,13.70
2018-10-18T07:21:17.430Z,13.70
2018-10-18T07:23:46.374Z,13.70
2018-10-18T07:26:15.095Z,13.80
2018-10-18T07:28:43.509Z,13.80
2018-10-18T07:31:14.293Z,13.90
2018-10-18T07:33:46.422Z,13.90
2018-10-18T07:36:15.218Z,14.00
2018-10-18T07:38:44.231Z,14.00
2018-10-18T07:41:16.141Z,14.00
2018-10-18T07:43:44.234Z,14.10
2018-10-18T07:46:12.769Z,14.10
2018-10-18T07:48:41.043Z,14.10
2018-10-18T07:51:09.241Z,14.10
2018-10-18T07:53:37.503Z,14.20
2018-10-18T07:56:05.758Z,14.20
2018-10-18T07:58:33.885Z,14.20
2018-10-18T08:01:02.132Z,14.30
2018-10-18T08:03:30.920Z,14.30
2018-10-18T08:05:59.137Z,14.30
2018-10-18T08:08:27.223Z,14.30
2018-10-18T08:10:55.540Z,14.30
2018-10-18T08:13:23.905Z,14.30
2018-10-18T08:15:52.171Z,14.30
2018-10-18T08:18:20.382Z,14.30
2018-10-18T08:20:49.824Z,14.40
2018-10-18T08:23:19.559Z,14.40
2018-10-18T08:25:48.001Z,14.40
2018-10-18T08:28:16.338Z,14.40
2018-10-18T08:30:44.624Z,14.50
2018-10-18T08:33:13.921Z,14.40
2018-10-18T08:35:42.346Z,14.50
2018-10-18T08:38:10.591Z,14.50
2018-10-18T08:40:38.824Z,14.60
2018-10-18T08:43:07.168Z,14.60
2018-10-18T08:45:35.370Z,14.60
2018-10-18T08:48:03.575Z,14.70
2018-10-18T08:50:31.867Z,14.70
2018-10-18T08:53:00.878Z,14.70
2018-10-18T08:55:29.287Z,14.70
2018-10-18T08:57:58.137Z,14.80
2018-10-18T09:00:26.413Z,14.90
2018-10-18T09:02:54.553Z,14.80
2018-10-18T09:05:22.813Z,14.90
2018-10-18T09:07:51.110Z,15.00
2018-10-18T09:10:19.216Z,15.00
2018-10-18T09:12:47.404Z,15.00
2018-10-18T09:15:15.545Z,15.10
2018-10-18T09:17:43.890Z,15.10
2018-10-18T09:20:12.037Z,15.20
2018-10-18T09:22:41.288Z,15.20
2018-10-18T09:25:10.793Z,15.20
2018-10-18T09:27:39.242Z,15.20
2018-10-18T09:30:08.970Z,15.20
2018-10-18T09:32:38.116Z,15.20
2018-10-18T09:35:06.454Z,15.20
2018-10-18T09:37:34.694Z,15.20
2018-10-18T09:40:03.489Z,15.20
2018-10-18T09:42:34.022Z,15.20
2018-10-18T09:45:02.395Z,15.30
2018-10-18T09:47:30.652Z,15.40
2018-10-18T09:49:58.832Z,15.50
2018-10-18T09:52:26.996Z,15.60
2018-10-18T09:54:55.250Z,15.60
2018-10-18T09:57:24.398Z,15.60
2018-10-18T09:59:52.970Z,15.70
2018-10-18T10:02:26.677Z,15.70
2018-10-18T10:04:54.983Z,15.80
2018-10-18T10:07:23.148Z,15.80
2018-10-18T10:09:51.443Z,15.80
2018-10-18T10:12:19.819Z,15.80
2018-10-18T10:14:48.045Z,15.90
2018-10-18T10:17:16.472Z,15.90
2018-10-18T10:19:44.786Z,15.90
2018-10-18T10:22:13.199Z,15.90
2018-10-18T10:24:41.484Z,15.90
2018-10-18T10:27:09.987Z,15.90
2018-10-18T10:29:38.313Z,16.00
2018-10-18T10:32:07.826Z,16.00
2018-10-18T10:34:36.075Z,16.00
2018-10-18T10:37:04.950Z,16.00
2018-10-18T10:39:35.076Z,16.10
2018-10-18T10:42:03.414Z,16.10
2018-10-18T10:44:31.629Z,16.20
2018-10-18T10:47:00.140Z,16.30
2018-10-18T10:49:28.457Z,16.30
2018-10-18T10:51:57.405Z,16.30
2018-10-18T10:54:26.165Z,16.30
2018-10-18T10:56:54.319Z,16.40
2018-10-18T10:59:22.454Z,16.40
2018-10-18T11:01:50.602Z,16.40
2018-10-18T11:04:18.642Z,16.40
2018-10-18T11:06:46.753Z,16.50
2018-10-18T11:09:14.984Z,16.50
2018-10-18T11:11:43.810Z,16.50
2018-10-18T11:14:12.046Z,16.60
2018-10-18T11:16:40.185Z,16.70
2018-10-18T11:19:08.344Z,16.70
2018-10-18T11:21:36.589Z,16.80
2018-10-18T11:24:05.093Z,16.80
2018-10-18T11:26:33.217Z,16.90
2018-10-18T11:29:01.249Z,17.00
2018-10-18T11:31:29.383Z,17.00
2018-10-18T11:33:57.575Z,17.00
2018-10-18T11:36:25.753Z,17.00
2018-10-18T11:38:53.907Z,17.00
2018-10-18T11:41:22.009Z,17.10
2018-10-18T11:43:50.130Z,17.20
2018-10-18T11:48:52.521Z,17.20
2018-10-18T11:51:20.708Z,17.20
2018-10-18T11:53:48.855Z,17.20
2018-10-18T11:56:17.100Z,17.10
2018-10-18T11:58:45.203Z,17.10
2018-10-18T12:01:15.609Z,17.00
2018-10-18T12:03:43.827Z,17.00
2018-10-18T12:06:11.898Z,17.00
2018-10-18T12:08:40.033Z,17.00
2018-10-18T12:11:08.255Z,17.00
2018-10-18T12:13:36.350Z,17.00
2018-10-18T12:16:05.034Z,17.00
2018-10-18T12:18:33.182Z,17.10
2018-10-18T12:21:01.387Z,17.20
2018-10-18T12:23:29.626Z,17.20
2018-10-18T12:25:57.804Z,17.30
2018-10-18T12:28:26.036Z,17.30
2018-10-18T12:30:54.264Z,17.40
2018-10-18T12:33:22.489Z,17.40
2018-10-18T12:35:50.628Z,17.40
2018-10-18T12:38:18.879Z,17.40
2018-10-18T12:40:47.113Z,17.50
2018-10-18T12:43:15.222Z,17.50
2018-10-18T12:45:43.466Z,17.50
2018-10-18T12:48:11.760Z,17.60
2018-10-18T12:50:39.714Z,17.50
2018-10-18T12:53:07.877Z,17.50
2018-10-18T12:55:36.014Z,17.50
2018-10-18T12:58:04.264Z,17.60
2018-10-18T13:00:32.424Z,17.60
2018-10-18T13:03:00.762Z,17.50
2018-10-18T13:05:29.043Z,17.50
2018-10-18T13:07:57.165Z,17.50
2018-10-18T13:10:25.757Z,17.60
2018-10-18T13:12:53.914Z,17.60
2018-10-18T13:15:22.090Z,17.70
2018-10-18T13:17:50.304Z,17.60
2018-10-18T13:20:18.634Z,17.60
2018-10-18T13:22:46.726Z,17.60
2018-10-18T13:25:14.874Z,17.60
2018-10-18T13:27:42.947Z,17.60
2018-10-18T13:30:11.513Z,17.50
2018-10-18T13:32:41.057Z,17.50
2018-10-18T13:35:10.073Z,17.50
2018-10-18T13:37:38.208Z,17.50
2018-10-18T13:40:07.383Z,17.50
2018-10-18T13:42:35.515Z,17.50
2018-10-18T13:45:03.983Z,17.50
2018-10-18T13:47:32.076Z,17.40
2018-10-18T13:50:00.343Z,17.40
2018-10-18T13:52:28.526Z,17.40
2018-10-18T13:54:56.819Z,17.40
2018-10-18T13:57:24.985Z,17.30
2018-10-18T14:00:05.148Z,17.20
2018-10-18T14:02:33.390Z,17.30
2018-10-18T14:05:01.653Z,17.20
2018-10-18T14:07:29.899Z,17.20
2018-10-18T14:09:58.080Z,17.20
2018-10-18T14:12:26.267Z,17.30
2018-10-18T14:14:54.375Z,17.30
2018-10-18T14:17:22.713Z,17.20
2018-10-18T14:19:50.765Z,17.20
2018-10-18T14:22:19.013Z,17.20
2018-10-18T14:24:47.166Z,17.20
2018-10-18T14:27:15.324Z,17.20
2018-10-18T14:29:45.327Z,17.10
2018-10-18T14:32:13.675Z,17.10
2018-10-18T14:34:41.850Z,17.10
2018-10-18T14:37:09.943Z,17.00
2018-10-18T14:39:38.127Z,17.00
2018-10-18T14:42:06.206Z,17.00
2018-10-18T14:44:34.404Z,17.00
2018-10-18T14:47:02.688Z,17.00
2018-10-18T14:49:30.792Z,16.90
2018-10-18T14:51:59.034Z,16.90
2018-10-18T14:54:27.286Z,16.90
2018-10-18T14:56:55.414Z,16.90
2018-10-18T14:59:23.574Z,16.90
2018-10-18T15:01:51.835Z,16.90
2018-10-18T15:04:20.057Z,16.90
2018-10-18T15:06:48.192Z,16.90
2018-10-18T15:09:16.430Z,16.80
2018-10-18T15:11:44.498Z,16.80
2018-10-18T15:14:12.697Z,16.80
2018-10-18T15:16:40.773Z,16.80
2018-10-18T15:19:09.091Z,16.70
2018-10-18T15:21:37.296Z,16.70
2018-10-18T15:24:05.559Z,16.70
2018-10-18T15:26:33.792Z,16.60
2018-10-18T15:29:02.586Z,16.60
2018-10-18T15:31:32.964Z,16.70
2018-10-18T15:34:01.147Z,16.60
2018-10-18T15:36:29.347Z,16.60
2018-10-18T15:38:57.927Z,16.60
2018-10-18T15:41:25.941Z,16.50
2018-10-18T15:43:54.123Z,16.50
2018-10-18T15:46:22.446Z,16.40
2018-10-18T15:48:50.630Z,16.40
2018-10-18T15:51:18.969Z,16.30
2018-10-18T15:53:47.111Z,16.20
2018-10-18T15:56:15.343Z,16.20
2018-10-18T15:58:43.516Z,16.10
2018-10-18T16:01:11.687Z,16.00
2018-10-18T16:03:39.870Z,16.00
2018-10-18T16:06:08.188Z,16.00
2018-10-18T16:08:36.475Z,15.90
2018-10-18T16:11:04.830Z,15.80
2018-10-18T16:13:33.739Z,15.80
2018-10-18T16:16:01.875Z,15.80
2018-10-18T16:18:30.087Z,15.70
2018-10-18T16:20:58.802Z,15.70
2018-10-18T16:23:27.014Z,15.60
2018-10-18T16:25:55.366Z,15.50
2018-10-18T16:28:23.471Z,15.50
2018-10-18T16:30:52.166Z,15.40
2018-10-18T16:33:20.352Z,15.40
2018-10-18T16:35:48.624Z,15.30
2018-10-18T16:38:17.016Z,15.30
2018-10-18T16:40:45.274Z,15.30
2018-10-18T16:43:13.970Z,15.30
2018-10-18T16:45:42.121Z,15.20
2018-10-18T16:48:10.520Z,15.20
2018-10-18T16:50:38.794Z,15.20
2018-10-18T16:53:07.748Z,15.20
2018-10-18T16:55:36.221Z,15.10
2018-10-18T16:58:04.570Z,15.10
2018-10-18T17:00:32.839Z,15.10
2018-10-18T17:03:01.187Z,15.10
2018-10-18T17:05:29.808Z,15.10
2018-10-18T17:07:58.396Z,15.00
2018-10-18T17:10:27.069Z,15.00
2018-10-18T17:12:55.925Z,15.00
2018-10-18T17:15:24.079Z,14.90
2018-10-18T17:17:52.451Z,14.90
2018-10-18T17:20:20.746Z,14.90
2018-10-18T17:22:48.752Z,14.90
2018-10-18T17:25:17.030Z,14.90
2018-10-18T17:27:45.269Z,14.80
2018-10-18T17:30:13.482Z,14.80
2018-10-18T17:32:41.628Z,14.80
2018-10-18T17:35:10.371Z,14.80
2018-10-18T17:37:38.545Z,14.80
2018-10-18T17:40:07.275Z,14.80
2018-10-18T17:42:35.350Z,14.80
2018-10-18T17:45:03.546Z,14.80
2018-10-18T17:47:31.685Z,14.80
2018-10-18T17:49:59.852Z,14.70
2018-10-18T17:52:27.921Z,14.70
2018-10-18T17:54:56.146Z,14.70
2018-10-18T17:57:24.164Z,14.70
2018-10-18T17:59:52.422Z,14.70
2018-10-18T18:02:20.823Z,14.70
2018-10-18T18:04:49.122Z,14.70
2018-10-18T18:07:17.333Z,14.60
2018-10-18T18:09:45.744Z,14.60
2018-10-18T18:12:13.902Z,14.60
2018-10-18T18:14:42.212Z,14.60
2018-10-18T18:17:11.351Z,14.70
2018-10-18T18:19:39.496Z,14.70
2018-10-18T18:22:07.777Z,14.60
2018-10-18T18:24:35.853Z,14.60
2018-10-18T18:27:04.190Z,14.60
2018-10-18T18:29:32.358Z,14.60
2018-10-18T18:32:00.719Z,14.50
2018-10-18T18:34:28.945Z,14.50
2018-10-18T18:36:57.106Z,14.50
2018-10-18T18:39:28.244Z,14.50
2018-10-18T18:41:56.336Z,14.50
2018-10-18T18:44:24.431Z,14.50
2018-10-18T18:46:52.861Z,14.50
2018-10-18T18:49:21.006Z,14.50
2018-10-18T18:51:49.201Z,14.50
2018-10-18T18:54:17.329Z,14.50
2018-10-18T18:56:45.657Z,14.40
2018-10-18T18:59:14.432Z,14.40
2018-10-18T19:01:42.617Z,14.40
2018-10-18T19:04:10.762Z,14.40
2018-10-18T19:06:39.040Z,14.40
2018-10-18T19:09:09.349Z,14.30
2018-10-18T19:11:37.682Z,14.40
2018-10-18T19:14:06.534Z,14.30
2018-10-18T19:16:34.721Z,14.30
2018-10-18T19:19:03.192Z,14.30
2018-10-18T19:21:31.447Z,14.40
2018-10-18T19:23:59.862Z,14.30
2018-10-18T19:26:28.189Z,14.30
2018-10-18T19:28:56.599Z,14.30
2018-10-18T19:31:24.793Z,14.30
2018-10-18T19:33:53.109Z,14.30
2018-10-18T19:36:21.404Z,14.30
2018-10-18T19:38:49.610Z,14.40
2018-10-18T19:41:17.737Z,14.40
2018-10-18T19:43:46.031Z,14.40
2018-10-18T19:46:14.275Z,14.30
2018-10-18T19:48:42.342Z,14.30
2018-10-18T19:51:11.090Z,14.30
2018-10-18T19:53:39.353Z,14.30
2018-10-18T19:56:07.581Z,14.20
2018-10-18T19:58:35.798Z,14.20
2018-10-18T20:01:04.248Z,14.20
2018-10-18T20:03:32.369Z,14.10
2018-10-18T20:06:00.540Z,14.10
2018-10-18T20:08:28.670Z,14.10
2018-10-18T20:10:56.736Z,14.10
2018-10-18T20:13:24.964Z,14.10
2018-10-18T20:15:53.169Z,14.10
2018-10-18T20:18:21.266Z,14.10
2018-10-18T20:20:49.317Z,14.10
2018-10-18T20:23:17.513Z,14.10
2018-10-18T20:25:45.744Z,14.10
2018-10-18T20:28:13.814Z,14.10
2018-10-18T20:30:41.910Z,14.10
2018-10-18T20:33:10.774Z,14.10
2018-10-18T20:35:39.008Z,14.10
2018-10-18T20:38:07.094Z,14.10
2018-10-18T20:40:35.249Z,14.10
2018-10-18T20:43:03.389Z,14.10
2018-10-18T20:45:36.338Z,14.10
2018-10-18T20:48:04.567Z,14.10
2018-10-18T20:50:32.681Z,14.20
2018-10-18T20:53:00.876Z,14.10
2018-10-18T20:55:29.095Z,14.10
2018-10-18T20:57:57.187Z,14.10
2018-10-18T21:00:25.274Z,14.10
2018-10-18T21:02:53.543Z,14.10
2018-10-18T21:05:21.691Z,14.10
2018-10-18T21:07:49.863Z,14.10
2018-10-18T21:10:17.976Z,14.10
2018-10-18T21:12:46.161Z,14.10
2018-10-18T21:15:14.341Z,14.10
2018-10-18T21:17:42.396Z,14.10
2018-10-18T21:20:10.460Z,14.10
2018-10-18T21:22:38.562Z,14.10
2018-10-18T21:25:07.022Z,14.10
2018-10-18T21:27:35.225Z,14.10
2018-10-18T21:30:03.441Z,14.10
2018-10-18T21:32:31.601Z,14.10
2018-10-18T21:34:59.901Z,14.10
2018-10-18T21:37:28.016Z,14.10
2018-10-18T21:39:56.164Z,14.00
2018-10-18T21:42:24.440Z,14.10
2018-10-18T21:44:53.091Z,14.10
2018-10-18T21:47:21.229Z,14.10
2018-10-18T21:49:49.455Z,14.00
2018-10-18T21:52:17.624Z,14.00
2018-10-18T21:54:45.697Z,14.00
2018-10-18T21:57:13.918Z,14.00
2018-10-18T21:59:41.910Z,14.10
2018-10-18T22:02:10.525Z,14.10
2018-10-18T22:04:39.683Z,14.00
2018-10-18T22:07:08.990Z,14.00
2018-10-18T22:09:37.151Z,14.00
2018-10-18T22:12:05.613Z,14.00
2018-10-18T22:14:33.702Z,14.00
2018-10-18T22:17:01.892Z,13.90
2018-10-18T22:19:29.981Z,13.90
2018-10-18T22:21:58.014Z,13.90
2018-10-18T22:24:26.099Z,13.90
2018-10-18T22:26:54.318Z,13.90
2018-10-18T22:29:22.369Z,13.80
2018-10-18T22:31:50.519Z,13.80
2018-10-18T22:34:18.532Z,13.80
2018-10-18T22:36:46.948Z,13.80
2018-10-18T22:39:15.230Z,13.80
2018-10-18T22:41:43.256Z,13.70
2018-10-18T22:44:11.395Z,13.70
2018-10-18T22:46:39.479Z,13.60
2018-10-18T22:49:07.587Z,13.60
2018-10-18T22:51:35.814Z,13.50
2018-10-18T22:54:04.329Z,13.50
2018-10-18T22:56:32.402Z,13.40
2018-10-18T22:59:00.650Z,13.30
2018-10-18T23:01:28.812Z,13.30
2018-10-18T23:03:56.938Z,13.30
2018-10-18T23:06:25.106Z,13.20
2018-10-18T23:08:53.256Z,13.20
2018-10-18T23:11:21.382Z,13.20
2018-10-18T23:13:49.962Z,13.10
2018-10-18T23:16:18.164Z,13.20
2018-10-18T23:18:46.273Z,13.10
2018-10-18T23:21:14.557Z,13.10
2018-10-18T23:23:42.641Z,13.10
2018-10-18T23:26:10.697Z,13.10
2018-10-18T23:28:39.166Z,13.10
2018-10-18T23:31:07.292Z,13.10
2018-10-18T23:33:35.504Z,13.10
2018-10-18T23:36:03.693Z,13.10
2018-10-18T23:38:31.810Z,13.00
2018-10-18T23:41:00.001Z,13.10
2018-10-18T23:43:28.180Z,13.00
2018-10-18T23:45:56.269Z,13.00
2018-10-18T23:48:24.353Z,13.00
2018-10-18T23:50:52.925Z,13.00
2018-10-18T23:53:21.093Z,13.00
2018-10-18T23:55:49.191Z,13.00
2018-10-18T23:58:17.255Z,12.90
